sensor_id;sensor_type;location;lat;lon;timestamp;P1;durP1;ratioP1;P2;durP2;ratioP2
21213;SDS011;10764;50.850;2.904;2023-05-13T00:01:28;7.05;;;4.00;;
21213;SDS011;10764;50.850;2.904;2023-05-13T00:03:55;7.43;;;3.90;;
21213;SDS011;10764;50.850;2.904;2023-05-13T00:06:22;7.57;;;3.97;;
21213;SDS011;10764;50.850;2.904;2023-05-13T00:08:48;7.45;;;4.00;;
21213;SDS011;10764;50.850;2.904;2023-05-13T00:11:16;6.93;;;4.28;;
21213;SDS011;10764;50.850;2.904;2023-05-13T00:13:42;7.15;;;3.95;;
21213;SDS011;10764;50.850;2.904;2023-05-13T00:16:09;5.78;;;3.88;;
21213;SDS011;10764;50.850;2.904;2023-05-13T00:18:36;7.20;;;4.32;;
21213;SDS011;10764;50.850;2.904;2023-05-13T00:21:03;9.43;;;4.75;;
21213;SDS011;10764;50.850;2.904;2023-05-13T00:23:30;6.17;;;3.97;;
21213;SDS011;10764;50.850;2.904;2023-05-13T00:25:58;9.73;;;4.40;;
21213;SDS011;10764;50.850;2.904;2023-05-13T00:28:25;6.80;;;3.80;;
21213;SDS011;10764;50.850;2.904;2023-05-13T00:30:52;7.57;;;3.95;;
21213;SDS011;10764;50.850;2.904;2023-05-13T00:33:19;7.87;;;4.00;;
21213;SDS011;10764;50.850;2.904;2023-05-13T00:35:46;7.53;;;4.28;;
21213;SDS011;10764;50.850;2.904;2023-05-13T00:38:13;7.43;;;3.90;;
21213;SDS011;10764;50.850;2.904;2023-05-13T00:40:40;7.50;;;4.00;;
21213;SDS011;10764;50.850;2.904;2023-05-13T00:43:07;7.83;;;4.30;;
21213;SDS011;10764;50.850;2.904;2023-05-13T00:45:37;7.57;;;4.10;;
21213;SDS011;10764;50.850;2.904;2023-05-13T00:48:04;7.00;;;3.80;;
21213;SDS011;10764;50.850;2.904;2023-05-13T00:50:32;9.67;;;4.70;;
21213;SDS011;10764;50.850;2.904;2023-05-13T00:52:59;7.72;;;4.00;;
21213;SDS011;10764;50.850;2.904;2023-05-13T00:55:27;7.50;;;4.17;;
21213;SDS011;10764;50.850;2.904;2023-05-13T00:57:53;7.15;;;3.92;;
21213;SDS011;10764;50.850;2.904;2023-05-13T01:00:20;7.13;;;3.75;;
21213;SDS011;10764;50.850;2.904;2023-05-13T01:06:03;9.57;;;4.82;;
21213;SDS011;10764;50.850;2.904;2023-05-13T01:11:27;8.48;;;4.20;;
21213;SDS011;10764;50.850;2.904;2023-05-13T01:17:00;11.15;;;7.35;;
21213;SDS011;10764;50.850;2.904;2023-05-13T01:22:07;12.68;;;11.38;;
21213;SDS011;10764;50.850;2.904;2023-05-13T01:24:34;11.20;;;9.75;;
21213;SDS011;10764;50.850;2.904;2023-05-13T01:27:02;7.35;;;4.88;;
21213;SDS011;10764;50.850;2.904;2023-05-13T01:29:29;10.32;;;8.55;;
21213;SDS011;10764;50.850;2.904;2023-05-13T01:31:57;8.45;;;4.60;;
21213;SDS011;10764;50.850;2.904;2023-05-13T01:34:25;8.43;;;4.70;;
21213;SDS011;10764;50.850;2.904;2023-05-13T01:36:54;7.32;;;4.45;;
21213;SDS011;10764;50.850;2.904;2023-05-13T01:39:21;8.15;;;4.60;;
21213;SDS011;10764;50.850;2.904;2023-05-13T01:41:52;9.00;;;4.30;;
21213;SDS011;10764;50.850;2.904;2023-05-13T01:44:19;8.02;;;5.43;;
21213;SDS011;10764;50.850;2.904;2023-05-13T01:46:46;25.90;;;23.80;;
21213;SDS011;10764;50.850;2.904;2023-05-13T01:49:16;10.90;;;5.93;;
21213;SDS011;10764;50.850;2.904;2023-05-13T01:51:44;7.25;;;4.40;;
21213;SDS011;10764;50.850;2.904;2023-05-13T01:54:11;8.52;;;4.85;;
21213;SDS011;10764;50.850;2.904;2023-05-13T01:56:43;12.65;;;8.98;;
21213;SDS011;10764;50.850;2.904;2023-05-13T01:59:11;12.40;;;8.90;;
21213;SDS011;10764;50.850;2.904;2023-05-13T02:01:38;8.02;;;5.35;;
21213;SDS011;10764;50.850;2.904;2023-05-13T02:04:06;8.82;;;5.00;;
21213;SDS011;10764;50.850;2.904;2023-05-13T02:06:33;10.05;;;5.10;;
21213;SDS011;10764;50.850;2.904;2023-05-13T02:09:00;8.02;;;4.80;;
21213;SDS011;10764;50.850;2.904;2023-05-13T02:11:27;8.18;;;4.88;;
21213;SDS011;10764;50.850;2.904;2023-05-13T02:13:55;8.47;;;4.70;;
21213;SDS011;10764;50.850;2.904;2023-05-13T02:16:22;8.32;;;4.60;;
21213;SDS011;10764;50.850;2.904;2023-05-13T02:18:49;8.93;;;4.82;;
21213;SDS011;10764;50.850;2.904;2023-05-13T02:21:17;11.68;;;5.28;;
21213;SDS011;10764;50.850;2.904;2023-05-13T02:23:43;9.32;;;6.03;;
21213;SDS011;10764;50.850;2.904;2023-05-13T02:26:10;9.82;;;5.13;;
21213;SDS011;10764;50.850;2.904;2023-05-13T02:28:37;10.82;;;6.07;;
21213;SDS011;10764;50.850;2.904;2023-05-13T02:31:04;11.20;;;5.85;;
21213;SDS011;10764;50.850;2.904;2023-05-13T02:33:31;9.70;;;5.00;;
21213;SDS011;10764;50.850;2.904;2023-05-13T02:35:58;11.07;;;5.63;;
21213;SDS011;10764;50.850;2.904;2023-05-13T02:38:25;8.65;;;5.25;;
21213;SDS011;10764;50.850;2.904;2023-05-13T02:40:52;10.52;;;5.93;;
21213;SDS011;10764;50.850;2.904;2023-05-13T02:43:19;7.20;;;4.68;;
21213;SDS011;10764;50.850;2.904;2023-05-13T02:45:53;10.65;;;5.40;;
21213;SDS011;10764;50.850;2.904;2023-05-13T02:48:20;10.55;;;6.45;;
21213;SDS011;10764;50.850;2.904;2023-05-13T02:50:48;13.85;;;8.88;;
21213;SDS011;10764;50.850;2.904;2023-05-13T02:53:15;17.85;;;16.15;;
21213;SDS011;10764;50.850;2.904;2023-05-13T02:55:48;11.35;;;8.95;;
21213;SDS011;10764;50.850;2.904;2023-05-13T02:58:15;11.77;;;9.07;;
21213;SDS011;10764;50.850;2.904;2023-05-13T03:00:44;12.93;;;10.27;;
21213;SDS011;10764;50.850;2.904;2023-05-13T03:03:11;17.42;;;15.80;;
21213;SDS011;10764;50.850;2.904;2023-05-13T03:05:38;31.42;;;29.02;;
21213;SDS011;10764;50.850;2.904;2023-05-13T03:08:05;38.35;;;35.45;;
21213;SDS011;10764;50.850;2.904;2023-05-13T03:10:32;17.53;;;15.80;;
21213;SDS011;10764;50.850;2.904;2023-05-13T03:12:59;26.27;;;23.97;;
21213;SDS011;10764;50.850;2.904;2023-05-13T03:15:26;16.15;;;14.68;;
21213;SDS011;10764;50.850;2.904;2023-05-13T03:17:53;13.13;;;10.85;;
21213;SDS011;10764;50.850;2.904;2023-05-13T03:20:20;10.53;;;9.27;;
21213;SDS011;10764;50.850;2.904;2023-05-13T03:22:47;14.32;;;12.82;;
21213;SDS011;10764;50.850;2.904;2023-05-13T03:25:14;14.60;;;13.18;;
21213;SDS011;10764;50.850;2.904;2023-05-13T03:27:49;11.07;;;7.30;;
21213;SDS011;10764;50.850;2.904;2023-05-13T03:30:18;12.40;;;11.15;;
21213;SDS011;10764;50.850;2.904;2023-05-13T03:32:54;15.05;;;12.57;;
21213;SDS011;10764;50.850;2.904;2023-05-13T03:35:21;41.10;;;37.90;;
21213;SDS011;10764;50.850;2.904;2023-05-13T03:37:48;72.07;;;66.88;;
21213;SDS011;10764;50.850;2.904;2023-05-13T03:40:16;65.78;;;61.03;;
21213;SDS011;10764;50.850;2.904;2023-05-13T03:42:43;9.17;;;4.77;;
21213;SDS011;10764;50.850;2.904;2023-05-13T03:45:11;10.32;;;5.18;;
21213;SDS011;10764;50.850;2.904;2023-05-13T03:47:40;7.97;;;4.60;;
21213;SDS011;10764;50.850;2.904;2023-05-13T03:50:11;9.82;;;4.78;;
21213;SDS011;10764;50.850;2.904;2023-05-13T03:52:41;8.95;;;4.53;;
21213;SDS011;10764;50.850;2.904;2023-05-13T03:55:12;8.27;;;4.40;;
21213;SDS011;10764;50.850;2.904;2023-05-13T03:57:41;7.75;;;4.35;;
21213;SDS011;10764;50.850;2.904;2023-05-13T04:00:10;9.98;;;4.60;;
21213;SDS011;10764;50.850;2.904;2023-05-13T04:02:40;10.93;;;4.90;;
21213;SDS011;10764;50.850;2.904;2023-05-13T04:05:09;10.48;;;4.95;;
21213;SDS011;10764;50.850;2.904;2023-05-13T04:07:36;7.18;;;4.18;;
21213;SDS011;10764;50.850;2.904;2023-05-13T04:10:03;9.30;;;4.82;;
21213;SDS011;10764;50.850;2.904;2023-05-13T04:12:30;7.65;;;4.47;;
21213;SDS011;10764;50.850;2.904;2023-05-13T04:14:59;9.88;;;4.70;;
21213;SDS011;10764;50.850;2.904;2023-05-13T04:17:26;8.02;;;4.38;;
21213;SDS011;10764;50.850;2.904;2023-05-13T04:19:53;7.70;;;4.07;;
21213;SDS011;10764;50.850;2.904;2023-05-13T04:22:21;10.60;;;4.70;;
21213;SDS011;10764;50.850;2.904;2023-05-13T04:24:49;7.93;;;4.22;;
21213;SDS011;10764;50.850;2.904;2023-05-13T04:27:21;8.87;;;4.60;;
21213;SDS011;10764;50.850;2.904;2023-05-13T04:29:51;8.15;;;4.28;;
21213;SDS011;10764;50.850;2.904;2023-05-13T04:32:18;7.13;;;4.20;;
21213;SDS011;10764;50.850;2.904;2023-05-13T04:34:51;7.28;;;4.18;;
21213;SDS011;10764;50.850;2.904;2023-05-13T04:37:19;8.45;;;4.32;;
21213;SDS011;10764;50.850;2.904;2023-05-13T04:39:47;7.18;;;3.72;;
21213;SDS011;10764;50.850;2.904;2023-05-13T04:42:16;7.10;;;3.92;;
21213;SDS011;10764;50.850;2.904;2023-05-13T04:44:43;6.07;;;3.93;;
21213;SDS011;10764;50.850;2.904;2023-05-13T04:47:10;8.30;;;3.97;;
21213;SDS011;10764;50.850;2.904;2023-05-13T04:49:37;8.17;;;4.23;;
21213;SDS011;10764;50.850;2.904;2023-05-13T04:52:04;8.60;;;4.18;;
21213;SDS011;10764;50.850;2.904;2023-05-13T04:54:32;7.90;;;3.85;;
21213;SDS011;10764;50.850;2.904;2023-05-13T04:57:01;8.10;;;3.83;;
21213;SDS011;10764;50.850;2.904;2023-05-13T04:59:29;7.07;;;3.90;;
21213;SDS011;10764;50.850;2.904;2023-05-13T05:01:56;7.47;;;3.70;;
21213;SDS011;10764;50.850;2.904;2023-05-13T05:04:24;11.68;;;8.82;;
21213;SDS011;10764;50.850;2.904;2023-05-13T05:06:51;8.82;;;4.18;;
21213;SDS011;10764;50.850;2.904;2023-05-13T05:09:18;10.15;;;5.45;;
21213;SDS011;10764;50.850;2.904;2023-05-13T05:11:47;11.23;;;8.95;;
21213;SDS011;10764;50.850;2.904;2023-05-13T05:14:17;11.25;;;9.30;;
21213;SDS011;10764;50.850;2.904;2023-05-13T05:16:46;7.35;;;4.00;;
21213;SDS011;10764;50.850;2.904;2023-05-13T05:19:14;11.35;;;4.55;;
21213;SDS011;10764;50.850;2.904;2023-05-13T05:21:41;7.75;;;4.07;;
21213;SDS011;10764;50.850;2.904;2023-05-13T05:24:08;8.52;;;4.05;;
21213;SDS011;10764;50.850;2.904;2023-05-13T05:26:35;9.90;;;4.20;;
21213;SDS011;10764;50.850;2.904;2023-05-13T05:29:03;8.63;;;4.03;;
21213;SDS011;10764;50.850;2.904;2023-05-13T05:31:30;8.68;;;4.20;;
21213;SDS011;10764;50.850;2.904;2023-05-13T05:34:00;8.05;;;4.05;;
21213;SDS011;10764;50.850;2.904;2023-05-13T05:36:27;7.70;;;3.90;;
21213;SDS011;10764;50.850;2.904;2023-05-13T05:38:54;11.95;;;3.90;;
21213;SDS011;10764;50.850;2.904;2023-05-13T05:41:28;8.30;;;3.90;;
21213;SDS011;10764;50.850;2.904;2023-05-13T05:43:55;10.20;;;3.70;;
21213;SDS011;10764;50.850;2.904;2023-05-13T05:46:22;10.20;;;4.18;;
21213;SDS011;10764;50.850;2.904;2023-05-13T05:48:49;6.45;;;3.70;;
21213;SDS011;10764;50.850;2.904;2023-05-13T05:51:16;8.98;;;4.00;;
21213;SDS011;10764;50.850;2.904;2023-05-13T05:53:43;7.30;;;3.47;;
21213;SDS011;10764;50.850;2.904;2023-05-13T05:56:12;9.25;;;4.05;;
21213;SDS011;10764;50.850;2.904;2023-05-13T05:58:40;10.20;;;3.92;;
21213;SDS011;10764;50.850;2.904;2023-05-13T06:01:06;8.98;;;3.95;;
21213;SDS011;10764;50.850;2.904;2023-05-13T06:05:01;8.07;;;3.85;;
21213;SDS011;10764;50.850;2.904;2023-05-13T06:07:28;6.10;;;3.40;;
